createdAt,value
2023-04-13T00:01:12.199Z,30.15
2023-04-13T00:03:40.030Z,43.30
2023-04-13T00:06:11.095Z,29.40
2023-04-13T00:08:38.740Z,26.80
2023-04-13T00:11:07.502Z,32.95
2023-04-13T00:13:41.473Z,30.65
2023-04-13T00:16:10.355Z,26.37
2023-04-13T00:18:37.488Z,26.92
2023-04-13T00:21:04.865Z,33.75
2023-04-13T00:23:32.491Z,26.58
2023-04-13T00:26:01.524Z,24.73
2023-04-13T00:28:29.727Z,26.85
2023-04-13T00:30:59.534Z,24.90
2023-04-13T00:33:26.821Z,27.80
2023-04-13T00:35:53.974Z,23.70
2023-04-13T00:38:24.054Z,23.08
2023-04-13T00:40:52.619Z,23.42
2023-04-13T00:43:20.609Z,21.87
2023-04-13T00:45:49.914Z,23.27
2023-04-13T00:48:17.404Z,24.15
2023-04-13T00:50:45.167Z,23.77
2023-04-13T00:53:13.787Z,18.80
2023-04-13T00:55:42.804Z,22.25
2023-04-13T00:58:10.245Z,19.37
2023-04-13T01:00:39.378Z,20.62
2023-04-13T01:03:07.143Z,26.70
2023-04-13T01:05:50.317Z,20.27
2023-04-13T01:08:28.740Z,15.98
2023-04-13T01:10:58.960Z,19.00
2023-04-13T01:13:41.201Z,15.90
2023-04-13T01:16:21.691Z,15.45
2023-04-13T01:18:52.574Z,17.55
2023-04-13T01:21:24.759Z,16.58
2023-04-13T01:24:10.580Z,18.73
2023-04-13T01:26:52.922Z,14.52
2023-04-13T01:29:20.516Z,14.77
2023-04-13T01:31:48.916Z,17.30
2023-04-13T01:34:16.616Z,14.38
2023-04-13T01:36:45.807Z,15.43
2023-04-13T01:39:22.453Z,14.20
2023-04-13T01:41:51.652Z,16.90
2023-04-13T01:44:19.344Z,18.77
2023-04-13T01:46:49.590Z,12.73
2023-04-13T01:49:21.087Z,14.20
2023-04-13T01:51:51.287Z,12.95
2023-04-13T01:54:21.094Z,15.50
2023-04-13T01:56:48.950Z,16.45
2023-04-13T01:59:16.803Z,18.15
2023-04-13T02:01:44.138Z,14.50
2023-04-13T02:04:11.962Z,13.48
2023-04-13T02:06:39.607Z,16.12
2023-04-13T02:09:07.386Z,15.98
2023-04-13T02:11:36.413Z,14.73
2023-04-13T02:14:04.883Z,14.57
2023-04-13T02:16:32.415Z,15.77
2023-04-13T02:19:00.235Z,15.75
2023-04-13T02:21:28.312Z,12.90
2023-04-13T02:23:55.841Z,15.60
2023-04-13T02:26:23.133Z,14.38
2023-04-13T02:28:51.490Z,13.65
2023-04-13T02:31:20.685Z,15.75
2023-04-13T02:33:47.956Z,17.45
2023-04-13T02:36:17.466Z,21.73
2023-04-13T02:38:45.697Z,18.33
2023-04-13T02:41:13.590Z,17.30
2023-04-13T02:43:40.719Z,16.50
2023-04-13T02:46:08.865Z,18.17
2023-04-13T02:48:37.071Z,14.30
2023-04-13T02:51:05.017Z,15.82
2023-04-13T02:53:32.701Z,18.70
2023-04-13T02:56:00.862Z,16.15
2023-04-13T02:58:31.524Z,26.52
2023-04-13T03:00:59.358Z,22.25
2023-04-13T03:03:26.694Z,27.08
2023-04-13T03:05:53.842Z,17.73
2023-04-13T03:08:21.331Z,18.62
2023-04-13T03:10:50.043Z,14.52
2023-04-13T03:13:17.194Z,16.73
2023-04-13T03:15:45.209Z,16.15
2023-04-13T03:18:13.251Z,24.70
2023-04-13T03:20:40.359Z,15.60
2023-04-13T03:23:07.849Z,17.05
2023-04-13T03:25:35.521Z,15.18
2023-04-13T03:28:03.460Z,17.75
2023-04-13T03:30:34.277Z,14.68
2023-04-13T03:33:02.445Z,19.25
2023-04-13T03:35:30.256Z,16.27
2023-04-13T03:37:58.065Z,15.88
2023-04-13T03:40:26.225Z,17.77
2023-04-13T03:42:53.532Z,21.90
2023-04-13T03:45:22.332Z,13.70
2023-04-13T03:47:49.812Z,13.48
2023-04-13T03:50:19.162Z,16.92
2023-04-13T03:52:46.648Z,18.75
2023-04-13T03:55:14.102Z,14.18
2023-04-13T03:57:42.038Z,14.57
2023-04-13T04:00:14.121Z,13.77
2023-04-13T04:02:45.288Z,40.53
2023-04-13T04:05:13.072Z,15.05
2023-04-13T04:07:40.600Z,24.83
2023-04-13T04:10:10.703Z,102.50
2023-04-13T04:12:37.921Z,71.07
2023-04-13T04:15:08.602Z,56.45
2023-04-13T04:17:39.413Z,32.08
2023-04-13T04:20:07.952Z,21.20
2023-04-13T04:22:36.666Z,45.08
2023-04-13T04:25:04.617Z,53.38
2023-04-13T04:27:37.921Z,63.83
2023-04-13T04:30:07.271Z,22.42
2023-04-13T04:32:35.891Z,20.92
2023-04-13T04:35:04.973Z,66.28
2023-04-13T04:37:37.517Z,82.50
2023-04-13T04:40:13.061Z,51.03
2023-04-13T04:42:40.571Z,61.60
2023-04-13T04:45:09.350Z,100.90
2023-04-13T04:47:43.816Z,56.58
2023-04-13T04:50:14.639Z,30.75
2023-04-13T04:52:43.160Z,36.00
2023-04-13T04:55:11.154Z,48.63
2023-04-13T04:57:39.318Z,155.10
2023-04-13T05:00:16.897Z,75.80
2023-04-13T05:02:44.843Z,46.42
2023-04-13T05:05:12.464Z,101.50
2023-04-13T05:07:39.809Z,181.57
2023-04-13T05:10:09.233Z,108.57
2023-04-13T05:12:37.617Z,126.82
2023-04-13T05:15:06.445Z,124.93
2023-04-13T05:17:36.419Z,154.12
2023-04-13T05:20:07.266Z,71.90
2023-04-13T05:22:35.912Z,98.62
2023-04-13T05:25:03.959Z,48.50
2023-04-13T05:27:31.171Z,31.00
2023-04-13T05:29:59.048Z,25.40
2023-04-13T05:32:26.433Z,36.03
2023-04-13T05:34:53.900Z,14.15
2023-04-13T05:37:21.573Z,14.80
2023-04-13T05:39:48.797Z,11.07
2023-04-13T05:42:16.512Z,9.95
2023-04-13T05:44:44.173Z,17.10
2023-04-13T05:47:11.851Z,9.85
2023-04-13T05:49:39.283Z,13.57
2023-04-13T05:52:10.624Z,12.68
2023-04-13T05:54:39.631Z,18.40
2023-04-13T05:57:07.136Z,11.00
2023-04-13T05:59:35.623Z,17.15
2023-04-13T06:02:03.614Z,22.42
2023-04-13T06:04:31.951Z,17.90
2023-04-13T06:06:59.309Z,26.40
2023-04-13T06:09:27.218Z,13.57
2023-04-13T06:11:55.324Z,10.07
2023-04-13T06:14:23.472Z,11.23
2023-04-13T06:16:52.200Z,20.33
2023-04-13T06:19:19.657Z,16.62
2023-04-13T06:21:47.163Z,19.15
2023-04-13T06:24:14.467Z,10.48
2023-04-13T06:26:42.751Z,12.95
2023-04-13T06:29:10.662Z,19.08
2023-04-13T06:31:38.624Z,27.45
2023-04-13T06:34:07.440Z,15.77
2023-04-13T06:36:34.985Z,15.95
2023-04-13T06:39:03.379Z,18.83
2023-04-13T06:41:32.215Z,11.75
2023-04-13T06:44:10.506Z,24.12
2023-04-13T06:46:39.614Z,16.17
2023-04-13T06:49:07.536Z,11.65
2023-04-13T06:51:34.848Z,45.50
2023-04-13T06:54:02.362Z,11.32
2023-04-13T06:56:30.017Z,14.80
2023-04-13T06:59:02.558Z,11.63
2023-04-13T07:01:31.903Z,13.88
2023-04-13T07:03:59.377Z,195.25
2023-04-13T07:06:27.516Z,15.73
2023-04-13T07:08:55.018Z,29.45
2023-04-13T07:11:22.425Z,15.68
2023-04-13T07:13:49.631Z,13.95
2023-04-13T07:16:17.138Z,22.02
2023-04-13T07:18:44.746Z,14.98
2023-04-13T07:21:11.918Z,16.70
2023-04-13T07:23:39.907Z,13.15
2023-04-13T07:26:13.070Z,10.98
2023-04-13T07:28:41.592Z,11.12
2023-04-13T07:31:09.260Z,9.73
2023-04-13T07:33:39.528Z,12.63
2023-04-13T07:36:08.666Z,11.40
2023-04-13T07:38:37.023Z,11.25
2023-04-13T07:41:04.724Z,16.12
2023-04-13T07:43:35.324Z,8.80
2023-04-13T07:46:11.864Z,32.20
2023-04-13T07:48:39.831Z,16.87
2023-04-13T07:51:16.034Z,9.50
2023-04-13T07:53:43.881Z,11.10
2023-04-13T07:56:11.622Z,10.50
2023-04-13T07:58:38.948Z,10.60
2023-04-13T08:01:07.099Z,12.57
2023-04-13T08:03:35.515Z,14.00
2023-04-13T08:06:07.817Z,12.95
2023-04-13T08:08:35.691Z,10.70
2023-04-13T08:11:03.339Z,16.00
2023-04-13T08:13:32.819Z,10.60
2023-04-13T08:16:00.500Z,11.82
2023-04-13T08:18:27.972Z,10.55
2023-04-13T08:20:55.564Z,9.52
2023-04-13T08:23:23.918Z,8.30
2023-04-13T08:25:51.736Z,13.45
2023-04-13T08:28:19.005Z,11.57
2023-04-13T08:30:46.608Z,11.07
2023-04-13T08:33:14.294Z,9.60
2023-04-13T08:35:41.763Z,14.32
2023-04-13T08:38:10.262Z,9.02
2023-04-13T08:40:39.744Z,9.10
2023-04-13T08:43:07.638Z,9.10
2023-04-13T08:45:35.410Z,13.18
2023-04-13T08:48:03.520Z,11.85
2023-04-13T08:50:32.614Z,9.02
2023-04-13T08:53:00.584Z,8.38
2023-04-13T08:55:29.415Z,10.52
2023-04-13T08:57:57.925Z,17.40
2023-04-13T09:00:25.519Z,18.62
2023-04-13T09:03:04.485Z,10.57
2023-04-13T09:05:39.055Z,9.45
2023-04-13T09:08:08.162Z,13.70
2023-04-13T09:10:36.742Z,11.57
2023-04-13T09:13:04.136Z,13.35
2023-04-13T09:15:32.273Z,10.50
2023-04-13T09:18:10.431Z,8.30
2023-04-13T09:20:38.362Z,9.68
2023-04-13T09:23:14.563Z,11.35
2023-04-13T09:25:42.272Z,10.38
2023-04-13T09:28:19.722Z,7.85
2023-04-13T09:30:47.515Z,9.77
2023-04-13T09:33:16.958Z,8.13
2023-04-13T09:35:44.145Z,6.10
2023-04-13T09:38:15.369Z,12.00
2023-04-13T09:40:49.505Z,8.80
2023-04-13T09:43:17.105Z,6.45
2023-04-13T09:45:44.567Z,5.60
2023-04-13T09:48:21.778Z,9.15
2023-04-13T09:51:04.957Z,6.10
2023-04-13T09:53:46.632Z,11.35
2023-04-13T09:56:14.300Z,10.20
2023-04-13T09:58:43.250Z,8.27
2023-04-13T10:01:10.488Z,8.00
2023-04-13T10:03:38.539Z,8.48
2023-04-13T10:06:07.915Z,8.30
2023-04-13T10:08:42.751Z,12.82
2023-04-13T10:11:14.742Z,10.27
2023-04-13T10:13:53.951Z,9.43
2023-04-13T10:16:33.638Z,4.97
2023-04-13T10:19:05.136Z,7.70
2023-04-13T10:21:35.680Z,7.95
2023-04-13T10:26:37.780Z,10.05
2023-04-13T10:29:06.077Z,11.25
2023-04-13T10:31:39.923Z,7.50
2023-04-13T10:34:08.502Z,10.15
2023-04-13T10:36:38.468Z,7.82
2023-04-13T10:39:06.157Z,12.15
2023-04-13T10:41:34.023Z,9.38
2023-04-13T10:44:05.331Z,8.07
2023-04-13T10:46:34.309Z,13.32
2023-04-13T10:49:03.331Z,8.15
2023-04-13T10:51:40.340Z,9.88
2023-04-13T10:54:08.383Z,9.95
2023-04-13T10:56:36.153Z,11.57
2023-04-13T10:59:04.460Z,9.65
2023-04-13T11:01:33.825Z,9.43
2023-04-13T11:04:06.838Z,8.77
2023-04-13T11:06:37.994Z,12.00
2023-04-13T11:09:07.310Z,8.25
2023-04-13T11:11:36.937Z,57.22
2023-04-13T11:14:04.669Z,12.70
2023-04-13T11:16:31.955Z,12.15
2023-04-13T11:19:03.651Z,10.55
2023-04-13T11:21:35.665Z,9.00
2023-04-13T11:24:03.898Z,8.57
2023-04-13T11:26:38.234Z,107.97
2023-04-13T11:29:06.235Z,62.95
2023-04-13T11:31:42.334Z,17.75
2023-04-13T11:34:11.368Z,10.85
2023-04-13T11:36:39.824Z,9.57
2023-04-13T11:39:10.979Z,8.55
2023-04-13T11:41:40.669Z,12.40
2023-04-13T11:44:07.847Z,13.60
2023-04-13T11:46:35.070Z,12.90
2023-04-13T11:49:02.781Z,8.90
2023-04-13T11:51:31.818Z,9.45
2023-04-13T11:53:59.686Z,7.12
2023-04-13T11:56:27.307Z,12.00
2023-04-13T11:58:54.557Z,9.77
2023-04-13T12:01:26.313Z,11.65
2023-04-13T12:04:14.930Z,8.40
2023-04-13T12:06:47.333Z,15.63
2023-04-13T12:09:17.980Z,13.88
2023-04-13T12:12:15.163Z,24.58
2023-04-13T12:14:57.730Z,12.30
2023-04-13T12:17:41.242Z,13.93
2023-04-13T12:20:16.543Z,8.75
2023-04-13T12:22:55.838Z,17.33
2023-04-13T12:28:03.405Z,13.85
2023-04-13T12:30:32.843Z,9.98
2023-04-13T12:33:00.078Z,9.75
2023-04-13T12:35:27.225Z,10.13
2023-04-13T12:37:54.634Z,8.23
2023-04-13T12:40:21.856Z,9.10
2023-04-13T12:42:49.244Z,11.27
2023-04-13T12:45:16.882Z,11.43
2023-04-13T12:47:44.119Z,12.35
2023-04-13T12:50:12.046Z,10.27
2023-04-13T12:52:42.601Z,12.07
2023-04-13T12:55:10.308Z,10.18
2023-04-13T12:57:37.836Z,8.60
2023-04-13T13:00:10.602Z,9.10
2023-04-13T13:02:38.291Z,11.65
2023-04-13T13:05:06.601Z,16.00
2023-04-13T13:07:33.736Z,13.20
2023-04-13T13:10:05.002Z,13.77
2023-04-13T13:12:37.713Z,13.23
2023-04-13T13:15:10.304Z,10.57
2023-04-13T13:17:41.225Z,14.13
2023-04-13T13:20:10.723Z,8.52
2023-04-13T13:22:38.211Z,9.70
2023-04-13T13:25:07.161Z,10.30
2023-04-13T13:28:05.566Z,10.48
2023-04-13T13:30:26.626Z,10.38
2023-04-13T13:32:53.757Z,97.62
2023-04-13T13:35:20.982Z,11.93
2023-04-13T13:37:48.374Z,16.50
2023-04-13T13:40:15.629Z,10.98
2023-04-13T13:42:52.025Z,66.60
2023-04-13T13:45:23.658Z,11.35
2023-04-13T13:47:57.275Z,9.77
2023-04-13T13:50:27.376Z,17.25
2023-04-13T13:53:03.678Z,10.32
2023-04-13T13:55:32.516Z,32.22
2023-04-13T13:57:59.837Z,12.40
2023-04-13T14:00:27.215Z,11.00
2023-04-13T14:02:55.101Z,15.52
2023-04-13T14:05:22.675Z,28.20
2023-04-13T14:07:50.960Z,23.60
2023-04-13T14:10:18.761Z,8.38
2023-04-13T14:12:49.612Z,12.68
2023-04-13T14:15:17.879Z,12.20
2023-04-13T14:17:55.536Z,9.18
2023-04-13T14:20:34.527Z,10.73
2023-04-13T14:23:02.033Z,17.00
2023-04-13T14:25:29.211Z,9.07
2023-04-13T14:27:56.530Z,10.13
2023-04-13T14:30:26.267Z,9.70
2023-04-13T14:32:54.925Z,9.23
2023-04-13T14:35:22.277Z,14.27
2023-04-13T14:37:49.822Z,10.75
2023-04-13T14:40:21.662Z,13.27
2023-04-13T14:42:50.932Z,7.85
2023-04-13T14:45:19.328Z,15.43
2023-04-13T14:47:46.709Z,14.13
2023-04-13T14:50:15.451Z,18.52
2023-04-13T14:52:44.370Z,14.50
2023-04-13T14:55:12.186Z,14.45
2023-04-13T14:57:40.287Z,11.75
2023-04-13T15:00:38.918Z,17.77
2023-04-13T15:03:07.882Z,12.93
2023-04-13T15:05:43.533Z,13.82
2023-04-13T15:08:17.704Z,12.98
2023-04-13T15:10:45.850Z,12.25
2023-04-13T15:13:13.216Z,12.13
2023-04-13T15:15:40.811Z,16.40
2023-04-13T15:18:09.104Z,14.75
2023-04-13T15:20:36.636Z,18.37
2023-04-13T15:23:03.836Z,16.50
2023-04-13T15:25:31.263Z,11.20
2023-04-13T15:27:58.789Z,11.50
2023-04-13T15:30:30.992Z,11.52
2023-04-13T15:32:59.983Z,16.95
2023-04-13T15:35:27.467Z,11.88
2023-04-13T15:37:54.957Z,34.47
2023-04-13T15:40:25.718Z,11.02
2023-04-13T15:42:53.024Z,18.08
2023-04-13T15:45:21.040Z,13.00
2023-04-13T15:47:48.530Z,16.05
2023-04-13T15:50:16.042Z,12.93
2023-04-13T15:52:43.192Z,27.60
2023-04-13T15:55:10.656Z,10.63
2023-04-13T15:57:38.315Z,17.00
2023-04-13T16:00:08.671Z,14.60
2023-04-13T16:02:36.616Z,11.45
2023-04-13T16:05:04.275Z,21.80
2023-04-13T16:07:31.796Z,20.35
2023-04-13T16:10:01.468Z,19.40
2023-04-13T16:12:32.364Z,11.98
2023-04-13T16:15:03.234Z,18.15
2023-04-13T16:17:31.724Z,18.90
2023-04-13T16:20:31.801Z,39.38
2023-04-13T16:23:02.398Z,39.83
2023-04-13T16:25:30.740Z,52.33
2023-04-13T16:27:58.172Z,43.90
2023-04-13T16:30:25.912Z,35.03
2023-04-13T16:32:53.077Z,15.10
2023-04-13T16:35:20.292Z,15.93
2023-04-13T16:37:47.782Z,18.73
2023-04-13T16:40:15.716Z,14.70
2023-04-13T16:42:43.563Z,14.05
2023-04-13T16:45:14.928Z,15.68
2023-04-13T16:47:42.777Z,12.80
2023-04-13T16:50:11.075Z,10.43
2023-04-13T16:52:41.163Z,10.70
2023-04-13T16:55:14.781Z,13.15
2023-04-13T16:57:42.973Z,13.38
2023-04-13T17:00:11.033Z,10.93
2023-04-13T17:02:39.617Z,11.82
2023-04-13T17:05:11.634Z,15.23
2023-04-13T17:07:39.764Z,13.25
2023-04-13T17:10:08.320Z,16.35
2023-04-13T17:12:36.256Z,18.50
2023-04-13T17:15:05.295Z,15.45
2023-04-13T17:17:32.913Z,16.15
2023-04-13T17:20:00.066Z,13.07
2023-04-13T17:22:27.306Z,17.60
2023-04-13T17:24:55.515Z,13.27
2023-04-13T17:27:22.862Z,12.07
2023-04-13T17:29:50.072Z,26.20
2023-04-13T17:32:19.582Z,14.68
2023-04-13T17:34:47.991Z,18.33
2023-04-13T17:37:15.781Z,19.02
2023-04-13T17:39:47.414Z,16.55
2023-04-13T17:42:15.236Z,18.12
2023-04-13T17:44:43.562Z,14.07
2023-04-13T17:47:10.909Z,16.73
2023-04-13T17:49:38.687Z,18.90
2023-04-13T17:52:06.635Z,20.67
2023-04-13T17:54:33.880Z,20.50
2023-04-13T17:57:01.740Z,21.20
2023-04-13T17:59:29.298Z,34.75
2023-04-13T18:01:58.514Z,29.87
2023-04-13T18:04:26.641Z,35.08
2023-04-13T18:06:56.447Z,26.67
2023-04-13T18:09:24.911Z,32.10
2023-04-13T18:11:52.431Z,27.35
2023-04-13T18:14:19.666Z,23.62
2023-04-13T18:16:46.926Z,22.92
2023-04-13T18:19:14.604Z,28.23
2023-04-13T18:21:41.761Z,36.38
2023-04-13T18:24:09.200Z,33.35
2023-04-13T18:26:36.787Z,25.17
2023-04-13T18:29:03.983Z,22.23
2023-04-13T18:31:32.247Z,28.90
2023-04-13T18:33:59.971Z,26.83
2023-04-13T18:36:27.795Z,25.67
2023-04-13T18:38:55.039Z,25.77
2023-04-13T18:41:22.537Z,23.48
2023-04-13T18:43:49.779Z,22.87
2023-04-13T18:46:17.036Z,25.83
2023-04-13T18:48:44.586Z,151.52
2023-04-13T18:51:12.418Z,100.53
2023-04-13T18:53:42.457Z,85.32
2023-04-13T18:56:09.952Z,71.57
2023-04-13T18:58:37.384Z,33.03
2023-04-13T19:01:04.690Z,23.87
2023-04-13T19:03:32.286Z,21.85
2023-04-13T19:05:59.628Z,26.00
2023-04-13T19:08:26.832Z,23.40
2023-04-13T19:10:54.271Z,22.77
2023-04-13T19:13:21.411Z,24.77
2023-04-13T19:15:48.601Z,27.27
2023-04-13T19:18:18.186Z,30.23
2023-04-13T19:20:45.473Z,33.15
2023-04-13T19:23:15.539Z,30.15
2023-04-13T19:25:43.006Z,25.27
2023-04-13T19:28:10.264Z,26.80
2023-04-13T19:30:37.402Z,26.35
2023-04-13T19:33:04.861Z,17.67
2023-04-13T19:35:32.841Z,17.52
2023-04-13T19:37:59.970Z,12.27
2023-04-13T19:40:27.515Z,10.90
2023-04-13T19:42:54.779Z,12.30
2023-04-13T19:45:21.911Z,11.30
2023-04-13T19:47:49.519Z,11.35
2023-04-13T19:50:16.716Z,9.50
2023-04-13T19:52:47.101Z,11.40
2023-04-13T19:55:15.433Z,9.73
2023-04-13T19:57:43.039Z,9.18
2023-04-13T20:00:17.399Z,9.85
2023-04-13T20:02:49.677Z,9.52
2023-04-13T20:05:18.463Z,8.45
2023-04-13T20:07:46.017Z,9.50
2023-04-13T20:10:13.173Z,9.05
2023-04-13T20:12:40.381Z,7.75
2023-04-13T20:15:08.138Z,8.07
2023-04-13T20:17:35.398Z,10.25
2023-04-13T20:20:02.961Z,9.00
2023-04-13T20:22:30.538Z,8.95
2023-04-13T20:24:58.153Z,8.98
2023-04-13T20:27:25.670Z,10.40
2023-04-13T20:29:53.141Z,8.95
2023-04-13T20:32:20.502Z,8.23
2023-04-13T20:34:48.704Z,9.23
2023-04-13T20:37:18.330Z,8.98
2023-04-13T20:39:52.821Z,9.88
2023-04-13T20:42:21.868Z,9.15
2023-04-13T20:44:57.315Z,14.93
2023-04-13T20:47:26.652Z,9.90
2023-04-13T20:49:57.291Z,10.65
2023-04-13T20:52:25.960Z,10.30
2023-04-13T20:54:54.673Z,10.43
2023-04-13T20:57:22.400Z,11.23
2023-04-13T20:59:51.779Z,9.85
2023-04-13T21:02:19.058Z,9.52
2023-04-13T21:04:46.695Z,9.40
2023-04-13T21:07:15.403Z,10.63
2023-04-13T21:09:43.044Z,10.98
2023-04-13T21:12:10.291Z,11.75
2023-04-13T21:14:37.804Z,10.98
2023-04-13T21:17:04.984Z,12.60
2023-04-13T21:19:32.652Z,11.18
2023-04-13T21:22:00.303Z,9.88
2023-04-13T21:24:27.552Z,10.43
2023-04-13T21:26:54.766Z,12.93
2023-04-13T21:29:22.341Z,11.00
2023-04-13T21:31:49.601Z,9.65
2023-04-13T21:34:17.136Z,10.48
2023-04-13T21:39:17.952Z,12.20
2023-04-13T21:41:48.200Z,13.75
2023-04-13T21:44:28.809Z,8.75
2023-04-13T21:46:58.505Z,10.02
2023-04-13T21:49:25.882Z,8.45
2023-04-13T21:51:53.100Z,8.55
2023-04-13T21:54:20.669Z,8.85
2023-04-13T21:56:49.095Z,9.63
2023-04-13T21:59:16.290Z,11.50
2023-04-13T22:01:43.901Z,6.45
2023-04-13T22:04:12.831Z,8.48
2023-04-13T22:06:40.123Z,7.62
2023-04-13T22:09:07.258Z,8.90
2023-04-13T22:11:34.653Z,8.02
2023-04-13T22:14:01.765Z,9.88
2023-04-13T22:16:29.011Z,6.10
2023-04-13T22:18:56.450Z,6.97
2023-04-13T22:21:23.865Z,6.78
2023-04-13T22:23:51.173Z,7.32
2023-04-13T22:26:18.613Z,7.62
2023-04-13T22:28:45.902Z,6.05
2023-04-13T22:31:13.141Z,6.97
2023-04-13T22:33:40.885Z,7.40
2023-04-13T22:36:20.145Z,5.90
2023-04-13T22:38:47.965Z,4.80
2023-04-13T22:41:15.664Z,5.90
2023-04-13T22:43:42.772Z,6.10
2023-04-13T22:46:10.247Z,6.25
2023-04-13T22:48:37.461Z,5.55
2023-04-13T22:51:04.691Z,5.00
2023-04-13T22:53:32.226Z,7.18
2023-04-13T22:56:00.747Z,8.30
2023-04-13T22:58:28.237Z,6.25
2023-04-13T23:00:55.810Z,8.75
2023-04-13T23:03:23.015Z,7.65
2023-04-13T23:05:50.746Z,6.93
2023-04-13T23:08:18.173Z,8.35
2023-04-13T23:10:45.280Z,6.22
2023-04-13T23:13:12.434Z,5.85
2023-04-13T23:15:39.883Z,6.50
2023-04-13T23:18:07.086Z,6.07
2023-04-13T23:20:34.268Z,7.45
2023-04-13T23:23:01.810Z,6.10
2023-04-13T23:25:29.025Z,8.32
2023-04-13T23:27:56.152Z,6.10
2023-04-13T23:30:23.638Z,7.47
2023-04-13T23:32:51.023Z,5.50
2023-04-13T23:35:18.126Z,5.65
2023-04-13T23:37:46.204Z,5.32
2023-04-13T23:40:13.423Z,6.60
2023-04-13T23:42:40.879Z,6.90
2023-04-13T23:45:08.876Z,9.52
2023-04-13T23:47:36.125Z,5.65
2023-04-13T23:50:03.454Z,5.50
2023-04-13T23:52:30.930Z,6.25
2023-04-13T23:54:58.146Z,4.55
2023-04-13T23:57:25.403Z,6.37
2023-04-13T23:59:57.249Z,5.18
